createdAt,value
2023-02-19T17:27:00.707Z,87583.44
2023-02-19T17:29:28.174Z,87588.13
2023-02-19T17:31:55.570Z,87584.75
2023-02-19T17:34:23.070Z,87592.56
2023-02-19T17:36:50.372Z,87599.59
2023-02-19T17:39:18.764Z,87605.88
2023-02-19T17:41:45.984Z,87608.75
2023-02-19T17:44:13.329Z,87614.28
2023-02-19T17:46:42.023Z,87622.31
2023-02-19T17:49:12.996Z,87619.97
2023-02-19T17:51:40.497Z,87612.44
2023-02-19T17:54:08.495Z,87620.06
2023-02-19T17:56:35.969Z,87616.97
2023-02-19T17:59:03.500Z,87629.53
2023-02-19T18:01:30.789Z,87628.34
2023-02-19T18:03:58.104Z,87629.81
2023-02-19T18:06:25.639Z,87650.47
2023-02-19T18:08:53.961Z,87654.44
2023-02-19T18:11:23.424Z,87652.72
2023-02-19T18:13:52.642Z,87653.63
2023-02-19T18:16:20.553Z,87639.41
2023-02-19T18:18:48.708Z,87642.91
2023-02-19T18:21:15.909Z,87645.94
2023-02-19T18:23:43.354Z,87657.56
2023-02-19T18:26:12.111Z,87636.00
2023-02-19T18:28:40.484Z,87635.94
2023-02-19T18:31:08.178Z,87652.91
2023-02-19T18:33:35.644Z,87645.81
2023-02-19T18:36:06.646Z,87654.84
2023-02-19T18:38:34.043Z,87641.53
2023-02-19T18:41:01.291Z,87646.78
2023-02-19T18:43:28.670Z,87642.16
2023-02-19T18:45:55.861Z,87647.94
2023-02-19T18:48:23.095Z,87651.59
2023-02-19T18:50:50.416Z,87657.19
2023-02-19T18:53:17.955Z,87654.63
2023-02-19T18:55:45.184Z,87664.63
2023-02-19T18:58:12.778Z,87667.31
2023-02-19T19:00:40.324Z,87671.47
2023-02-19T19:03:13.324Z,87670.56
2023-02-19T19:05:40.644Z,87674.06
2023-02-19T19:08:08.164Z,87677.97
2023-02-19T19:10:35.353Z,87685.34
2023-02-19T19:13:02.744Z,87697.00
2023-02-19T19:15:32.669Z,87700.00
2023-02-19T19:17:59.991Z,87712.72
2023-02-19T19:20:30.322Z,87729.13
2023-02-19T19:22:57.690Z,87739.03
2023-02-19T19:25:28.317Z,87730.19
2023-02-19T19:27:56.334Z,87724.13
2023-02-19T19:30:23.635Z,87735.97
2023-02-19T19:32:52.670Z,87761.66
2023-02-19T19:35:22.128Z,87767.13
2023-02-19T19:37:49.982Z,87758.84
2023-02-19T19:40:18.626Z,87761.41
2023-02-19T19:42:46.735Z,87774.78
2023-02-19T19:45:14.647Z,87785.81
2023-02-19T19:47:46.107Z,87786.00
2023-02-19T19:50:13.610Z,87786.88
2023-02-19T19:52:40.938Z,87797.63
2023-02-19T19:55:08.937Z,87802.31
2023-02-19T19:57:37.366Z,87798.38
2023-02-19T20:00:06.753Z,87797.69
2023-02-19T20:02:34.032Z,87803.19
2023-02-19T20:05:01.248Z,87789.50
2023-02-19T20:07:28.517Z,87788.25
2023-02-19T20:09:55.694Z,87791.34
2023-02-19T20:12:22.890Z,87791.63
2023-02-19T20:14:50.088Z,87788.66
2023-02-19T20:17:17.399Z,87792.53
2023-02-19T20:19:46.329Z,87793.34
2023-02-19T20:22:13.665Z,87783.47
2023-02-19T20:24:40.870Z,87774.66
2023-02-19T20:27:08.772Z,87781.97
2023-02-19T20:29:36.390Z,87770.22
2023-02-19T20:32:03.999Z,87763.09
2023-02-19T20:34:32.117Z,87765.97
2023-02-19T20:36:59.622Z,87773.69
2023-02-19T20:39:27.167Z,87765.66
2023-02-19T20:41:55.050Z,87765.81
2023-02-19T20:44:22.414Z,87770.22
2023-02-19T20:46:51.977Z,87758.97
2023-02-19T20:49:23.210Z,87760.16
2023-02-19T20:52:00.335Z,87763.91
2023-02-19T20:54:31.904Z,87773.16
2023-02-19T20:57:02.478Z,87776.38
2023-02-19T20:59:33.228Z,87766.91
2023-02-19T21:02:03.403Z,87778.22
2023-02-19T21:04:30.891Z,87780.41
2023-02-19T21:06:59.046Z,87785.91
2023-02-19T21:09:26.459Z,87781.47
2023-02-19T21:11:54.096Z,87787.19
2023-02-19T21:14:21.318Z,87786.56
2023-02-19T21:16:48.843Z,87779.47
2023-02-19T21:19:16.183Z,87783.81
2023-02-19T21:21:43.450Z,87784.06
2023-02-19T21:24:14.128Z,87784.19
2023-02-19T21:26:43.267Z,87797.25
2023-02-19T21:29:16.725Z,87793.03
2023-02-19T21:31:47.872Z,87789.66
2023-02-19T21:34:20.187Z,87788.13
2023-02-19T21:36:47.589Z,87788.25
2023-02-19T21:39:18.902Z,87798.28
2023-02-19T21:41:46.782Z,87794.91
2023-02-19T21:44:14.232Z,87792.53
2023-02-19T21:46:41.716Z,87790.56
2023-02-19T21:49:11.375Z,87793.94
2023-02-19T21:51:41.898Z,87788.28
2023-02-19T21:54:22.877Z,87795.69
2023-02-19T21:56:51.092Z,87789.81
2023-02-19T21:59:19.856Z,87780.00
2023-02-19T22:01:47.685Z,87785.31
2023-02-19T22:04:18.867Z,87788.63
2023-02-19T22:06:46.297Z,87794.16
2023-02-19T22:09:15.041Z,87798.41
2023-02-19T22:11:42.485Z,87798.31
2023-02-19T22:14:09.959Z,87805.28
2023-02-19T22:16:37.209Z,87807.88
2023-02-19T22:19:04.932Z,87804.50
2023-02-19T22:21:33.906Z,87806.56
2023-02-19T22:24:03.040Z,87810.84
2023-02-19T22:26:35.230Z,87812.13
2023-02-19T22:29:03.784Z,87817.91
2023-02-19T22:31:33.193Z,87808.13
2023-02-19T22:34:00.665Z,87818.44
2023-02-19T22:36:31.453Z,87813.13
2023-02-19T22:39:00.658Z,87819.44
2023-02-19T22:41:29.034Z,87812.69
2023-02-19T22:48:03.102Z,87815.09
2023-02-19T22:50:30.548Z,87814.41
2023-02-19T22:52:58.051Z,87818.78
2023-02-19T22:55:25.278Z,87823.00
2023-02-19T22:57:52.638Z,87833.47
2023-02-19T23:00:21.652Z,87832.06
2023-02-19T23:02:49.298Z,87827.59
2023-02-19T23:05:17.195Z,87827.03
2023-02-19T23:07:45.923Z,87834.34
2023-02-19T23:14:27.991Z,87835.47
2023-02-19T23:16:55.307Z,87838.75
2023-02-19T23:19:22.581Z,87841.22
2023-02-19T23:21:50.340Z,87839.72
2023-02-19T23:28:35.748Z,87844.78
2023-02-19T23:31:03.440Z,87832.94
2023-02-19T23:33:30.731Z,87843.25
2023-02-19T23:35:58.108Z,87836.06
2023-02-19T23:38:25.305Z,87843.25
2023-02-19T23:40:52.506Z,87854.22
2023-02-19T23:43:20.016Z,87844.31
2023-02-19T23:49:53.606Z,87848.19
2023-02-19T23:52:21.872Z,87841.31
2023-02-19T23:54:49.100Z,87851.94
2023-02-19T23:57:16.473Z,87853.69
2023-02-19T23:59:43.784Z,87850.28
